Time;durP1;ratioP1;P1;durP2;ratioP2;P2;SDS_P1;SDS_P2;PMS_P1;PMS_P2;Temp;Humidity;BMP_temperature;BMP_pressure;BME280_temperature;BME280_humidity;BME280_pressure;Samples;Min_cycle;Max_cycle;Signal;HPM_P1;HPM_P2
2021/12/06 00:01:15;;;;;;;13.95;9.63;;;-1.20;99.90;;;;;;6207565;23;20017;-86
2021/12/06 00:04:08;;;;;;;14.95;8.88;;;-1.10;99.90;;;;;;6183891;23;20440;-85
2021/12/06 00:06:40;;;;;;;7.30;5.05;;;-1.10;99.90;;;;;;6208275;23;20028;-86
2021/12/06 00:09:21;;;;;;;6.80;4.72;;;-1.10;99.90;;;;;;6219898;23;20016;-85
2021/12/06 00:11:56;;;;;;;9.00;6.15;;;-1.10;99.90;;;;;;6209045;23;20487;-86
2021/12/06 00:14:28;;;;;;;7.78;6.97;;;-1.10;99.90;;;;;;6208764;23;20025;-84
2021/12/06 00:16:57;;;;;;;27.25;6.78;;;-1.10;99.90;;;;;;6219936;23;20016;-85
2021/12/06 00:19:26;;;;;;;7.80;4.53;;;-1.10;99.90;;;;;;6212490;23;20025;-86
2021/12/06 00:21:55;;;;;;;6.50;5.82;;;-1.30;99.90;;;;;;6216960;23;20012;-85
2021/12/06 00:24:23;;;;;;;7.05;5.43;;;-1.30;99.90;;;;;;6184854;23;20357;-85
2021/12/06 00:26:51;;;;;;;8.27;6.43;;;-1.30;99.90;;;;;;6213102;23;20352;-84
2021/12/06 00:29:19;;;;;;;19.45;6.35;;;-1.30;99.90;;;;;;6184283;23;20107;-85
2021/12/06 00:31:47;;;;;;;9.25;5.32;;;-1.30;99.90;;;;;;6158637;23;20043;-85
2021/12/06 00:34:18;;;;;;;8.75;5.25;;;-1.30;99.90;;;;;;6191793;23;20017;-86
2021/12/06 00:36:54;;;;;;;40.22;7.28;;;-1.30;99.90;;;;;;6182547;23;20020;-85
2021/12/06 00:39:23;;;;;;;13.82;6.50;;;-1.20;99.90;;;;;;6207704;23;20535;-85
2021/12/06 00:41:51;;;;;;;12.50;7.32;;;-1.30;99.90;;;;;;6179754;23;20020;-85
2021/12/06 00:44:18;;;;;;;30.27;8.20;;;-1.20;99.90;;;;;;6219474;23;20009;-85
2021/12/06 00:46:46;;;;;;;21.20;12.52;;;-1.10;99.90;;;;;;6158863;23;20020;-85
2021/12/06 00:49:15;;;;;;;21.48;15.40;;;-1.20;99.90;;;;;;6194678;23;20012;-84
2021/12/06 00:51:43;;;;;;;19.92;12.05;;;-1.20;99.90;;;;;;6209427;23;20027;-85
2021/12/06 00:54:11;;;;;;;14.15;7.75;;;-1.10;99.90;;;;;;6159249;23;20020;-85
2021/12/06 00:56:39;;;;;;;28.58;13.70;;;-1.10;99.90;;;;;;6218694;23;20023;-84
2021/12/06 00:59:07;;;;;;;13.48;8.52;;;-1.20;99.90;;;;;;6183836;23;20017;-84
2021/12/06 01:01:35;;;;;;;22.63;8.93;;;-1.10;99.90;;;;;;6218778;23;20336;-84
2021/12/06 01:04:05;;;;;;;13.30;8.68;;;-1.10;99.90;;;;;;6209586;23;20027;-84
2021/12/06 01:06:33;;;;;;;16.05;9.05;;;-1.00;99.90;;;;;;6182522;23;20352;-83
2021/12/06 01:09:04;;;;;;;14.77;8.27;;;-0.90;99.90;;;;;;6184696;23;20048;-85
2021/12/06 01:11:32;;;;;;;20.80;11.23;;;-1.00;99.90;;;;;;6208385;23;20035;-84
2021/12/06 01:14:00;;;;;;;16.60;9.13;;;-1.00;99.90;;;;;;6193055;23;20444;-85
2021/12/06 01:16:29;;;;;;;15.75;9.10;;;-0.90;99.90;;;;;;6183793;23;20017;-84
2021/12/06 01:18:57;;;;;;;12.55;7.57;;;-1.00;99.90;;;;;;6214874;23;20012;-85
2021/12/06 01:21:42;;;;;;;14.70;9.65;;;-0.90;99.90;;;;;;6158730;23;20016;-84
2021/12/06 01:24:12;;;;;;;14.43;8.85;;;-1.00;99.90;;;;;;6184979;23;20387;-84
2021/12/06 01:29:43;;;;;;;13.68;8.52;;;-0.90;99.90;;;;;;6221094;23;20024;-84
2021/12/06 01:32:47;;;;;;;12.50;7.93;;;-0.90;99.90;;;;;;6185125;23;20025;-84
2021/12/06 01:40:40;;;;;;;12.50;8.23;;;-0.90;99.90;;;;;;6217905;23;20024;-83
2021/12/06 01:43:10;;;;;;;10.63;6.90;;;-0.80;99.90;;;;;;6190387;23;20029;-84
2021/12/06 01:45:38;;;;;;;11.68;7.65;;;-0.80;99.90;;;;;;6221079;23;20009;-84
2021/12/06 01:48:09;;;;;;;16.65;7.53;;;-0.70;99.90;;;;;;6210512;23;20032;-83
2021/12/06 01:50:38;;;;;;;12.45;8.93;;;-0.80;99.90;;;;;;6190899;23;20017;-83
2021/12/06 01:53:06;;;;;;;8.30;5.97;;;-0.70;99.90;;;;;;6160955;23;20013;-84
2021/12/06 01:55:37;;;;;;;7.55;5.60;;;-0.80;99.90;;;;;;6210524;23;20032;-82
2021/12/06 01:58:07;;;;;;;17.58;9.55;;;-0.90;99.90;;;;;;6185224;23;20020;-83
2021/12/06 02:00:46;;;;;;;12.95;8.00;;;-0.90;99.90;;;;;;6194465;23;20343;-83
2021/12/06 02:03:20;;;;;;;14.40;10.00;;;-0.90;99.90;;;;;;6213680;23;20020;-84
2021/12/06 02:05:49;;;;;;;11.85;6.95;;;-0.90;99.90;;;;;;6160102;23;20017;-83
2021/12/06 02:08:22;;;;;;;10.00;7.68;;;-0.80;99.90;;;;;;6220891;23;20044;-83
2021/12/06 02:10:50;;;;;;;10.18;5.80;;;-0.80;99.90;;;;;;6206737;23;20024;-84
2021/12/06 02:13:21;;;;;;;7.20;4.90;;;-0.80;99.90;;;;;;6220854;23;20013;-84
2021/12/06 02:15:52;;;;;;;8.52;4.53;;;-0.70;99.90;;;;;;6211797;23;20514;-84
2021/12/06 02:18:41;;;;;;;7.35;6.63;;;-0.70;99.90;;;;;;6217372;23;20586;-84
2021/12/06 02:21:20;;;;;;;5.03;3.92;;;-0.60;99.90;;;;;;6221266;23;20009;-83
2021/12/06 02:23:49;;;;;;;6.78;3.75;;;-0.70;99.90;;;;;;6183981;23;20025;-83
2021/12/06 02:26:20;;;;;;;4.70;4.22;;;-0.70;99.90;;;;;;6214778;23;20021;-84
2021/12/06 02:28:48;;;;;;;5.38;4.75;;;-0.60;99.90;;;;;;6209999;23;20467;-84
2021/12/06 02:31:22;;;;;;;7.90;4.85;;;-0.60;99.90;;;;;;6184177;23;20028;-83
2021/12/06 02:33:50;;;;;;;;;;;-0.60;99.90;;;;;;6220015;23;20148;-83
2021/12/06 02:36:20;;;;;;;6.25;4.45;;;-0.60;99.90;;;;;;6210841;23;20331;-83
2021/12/06 02:38:48;;;;;;;5.60;4.07;;;-0.50;99.90;;;;;;6216981;23;20025;-84
2021/12/06 02:41:18;;;;;;;12.00;5.85;;;-0.60;99.90;;;;;;6182194;23;20023;-84
2021/12/06 02:43:47;;;;;;;7.43;5.35;;;-0.60;99.90;;;;;;6184550;23;20016;-83
2021/12/06 02:46:17;;;;;;;5.97;3.90;;;-0.60;99.90;;;;;;6160118;23;20016;-83
2021/12/06 02:48:45;;;;;;;15.10;6.13;;;-0.60;99.90;;;;;;6219781;23;20017;-83
2021/12/06 02:51:14;;;;;;;7.88;4.85;;;-0.70;99.90;;;;;;6212672;23;20025;-84
2021/12/06 02:53:42;;;;;;;10.82;6.18;;;-0.60;99.90;;;;;;6211729;23;20287;-84
2021/12/06 02:56:31;;;;;;;8.63;4.97;;;-0.60;99.90;;;;;;6181204;23;20040;-83
2021/12/06 02:59:05;;;;;;;6.63;5.22;;;-0.60;99.90;;;;;;6215943;23;20471;-83
2021/12/06 03:01:42;;;;;;;10.25;8.32;;;-0.40;99.90;;;;;;6194734;23;20024;-84
2021/12/06 03:04:11;;;;;;;12.55;5.80;;;-0.50;99.90;;;;;;6184250;23;20032;-84
2021/12/06 03:06:42;;;;;;;9.13;5.07;;;-0.50;99.90;;;;;;6183808;23;20468;-84
2021/12/06 03:09:16;;;;;;;10.05;6.45;;;-0.40;99.90;;;;;;6221323;23;20013;-84
2021/12/06 03:11:53;;;;;;;12.48;7.78;;;-0.60;99.90;;;;;;6208162;23;20035;-83
2021/12/06 03:14:26;;;;;;;8.07;5.13;;;-0.50;99.90;;;;;;6184348;23;20020;-84
2021/12/06 03:17:00;;;;;;;11.38;7.88;;;-0.50;99.90;;;;;;6220070;23;20017;-83
2021/12/06 03:19:29;;;;;;;12.30;7.28;;;-0.60;99.90;;;;;;6212620;23;20024;-84
2021/12/06 03:21:58;;;;;;;10.05;6.95;;;-0.60;99.90;;;;;;6216761;23;20012;-84
2021/12/06 03:24:25;;;;;;;6.38;5.47;;;-0.60;99.90;;;;;;6221785;23;20467;-84
2021/12/06 03:26:54;;;;;;;13.18;6.10;;;-0.60;99.90;;;;;;6212077;23;20350;-84
2021/12/06 03:29:23;;;;;;;8.73;5.60;;;-0.50;99.90;;;;;;6184984;23;20023;-84
2021/12/06 03:31:52;;;;;;;9.35;6.60;;;-0.60;99.90;;;;;;6209732;23;20494;-84
2021/12/06 03:34:21;;;;;;;7.10;5.15;;;-0.50;99.90;;;;;;6159547;23;20023;-84
2021/12/06 03:36:50;;;;;;;8.50;5.40;;;-0.50;99.90;;;;;;6219468;23;20012;-83
2021/12/06 03:39:23;;;;;;;9.65;6.40;;;-0.40;99.90;;;;;;6212471;23;20032;-84
2021/12/06 03:41:54;;;;;;;8.02;5.53;;;-0.40;99.90;;;;;;6215978;23;20522;-84
2021/12/06 03:44:26;;;;;;;7.97;6.90;;;-0.30;99.90;;;;;;6185370;23;20353;-84
2021/12/06 03:47:05;;;;;;;9.27;5.95;;;-0.40;99.90;;;;;;6207349;23;20427;-83
2021/12/06 03:49:34;;;;;;;19.75;10.75;;;-0.40;99.90;;;;;;6219880;23;20016;-83
2021/12/06 03:52:03;;;;;;;15.55;8.82;;;-0.40;99.90;;;;;;6208986;23;20027;-84
2021/12/06 03:54:32;;;;;;;20.75;10.38;;;-0.40;99.90;;;;;;6159168;23;20478;-83
2021/12/06 03:57:02;;;;;;;20.58;11.73;;;-0.40;99.90;;;;;;6217338;23;20333;-82
2021/12/06 03:59:31;;;;;;;23.90;12.60;;;-0.40;99.90;;;;;;6212947;23;20031;-84
2021/12/06 04:02:00;;;;;;;19.15;8.43;;;-0.40;99.90;;;;;;6216653;23;20019;-84
2021/12/06 04:04:29;;;;;;;21.60;8.00;;;-0.50;99.90;;;;;;6219249;23;20010;-84
2021/12/06 04:07:34;;;;;;;11.27;7.35;;;-0.40;99.90;;;;;;6185094;23;20356;-84
2021/12/06 04:10:51;;;;;;;15.85;8.95;;;-0.40;99.90;;;;;;6212486;23;20456;-84
2021/12/06 04:14:00;;;;;;;15.32;6.90;;;-0.40;99.90;;;;;;6218515;23;20016;-84
2021/12/06 04:16:55;;;;;;;14.82;6.55;;;-0.50;99.90;;;;;;6221257;23;20337;-83
2021/12/06 04:19:23;;;;;;;14.40;6.75;;;-0.50;99.90;;;;;;6212036;23;20027;-84
2021/12/06 04:21:53;;;;;;;15.38;8.30;;;-0.50;99.90;;;;;;6217133;23;20368;-84
2021/12/06 04:24:20;;;;;;;14.05;6.68;;;-0.50;99.90;;;;;;6160694;23;20043;-84
2021/12/06 04:26:49;;;;;;;8.32;6.30;;;-0.50;99.90;;;;;;6215736;23;20024;-83
2021/12/06 04:29:18;;;;;;;10.35;5.88;;;-0.50;99.90;;;;;;6221703;23;20020;-84
2021/12/06 04:31:55;;;;;;;18.25;8.52;;;-0.50;99.90;;;;;;6211976;23;20384;-84
2021/12/06 04:34:25;;;;;;;15.77;8.90;;;-0.40;99.90;;;;;;6218133;23;20020;-84
2021/12/06 04:36:53;;;;;;;14.95;7.18;;;-0.50;99.90;;;;;;6210477;23;20021;-84
2021/12/06 04:39:22;;;;;;;12.15;10.27;;;-0.40;99.90;;;;;;6214531;23;20040;-84
2021/12/06 04:41:51;;;;;;;8.77;6.93;;;-0.40;99.90;;;;;;6219582;23;20017;-84
2021/12/06 04:44:20;;;;;;;13.38;8.25;;;-0.30;99.90;;;;;;6221295;23;20017;-84
2021/12/06 04:46:48;;;;;;;11.65;6.28;;;-0.40;99.90;;;;;;6191789;23;20028;-84
2021/12/06 04:49:17;;;;;;;15.45;8.75;;;-0.40;99.90;;;;;;6196482;23;20013;-84
2021/12/06 04:51:50;;;;;;;16.05;8.00;;;-0.40;99.90;;;;;;6212392;23;20032;-84
2021/12/06 04:54:25;;;;;;;12.88;8.48;;;-0.40;99.90;;;;;;6193664;23;20020;-83
2021/12/06 04:56:58;;;;;;;11.25;6.55;;;-0.40;99.90;;;;;;6186029;23;20012;-84
2021/12/06 04:59:49;;;;;;;11.90;6.45;;;-0.40;99.90;;;;;;6217643;23;20456;-84
2021/12/06 05:02:30;;;;;;;11.45;6.75;;;-0.40;99.90;;;;;;6220240;23;20017;-84
2021/12/06 05:05:05;;;;;;;10.15;6.78;;;-0.40;99.90;;;;;;6187988;23;20017;-84
2021/12/06 05:07:38;;;;;;;9.45;6.47;;;-0.20;99.90;;;;;;6215292;23;20035;-84
2021/12/06 05:10:10;;;;;;;13.90;7.57;;;-0.40;99.90;;;;;;6220401;23;20170;-84
2021/12/06 05:12:40;;;;;;;11.35;6.38;;;-0.40;99.90;;;;;;6222765;23;20353;-84
2021/12/06 05:15:08;;;;;;;9.88;5.13;;;-0.50;99.90;;;;;;6216780;23;20372;-84
2021/12/06 05:17:37;;;;;;;13.13;7.25;;;-0.40;99.90;;;;;;6223624;23;20015;-84
2021/12/06 05:20:07;;;;;;;8.77;6.65;;;-0.40;99.90;;;;;;6212955;23;20036;-84
2021/12/06 05:22:35;;;;;;;12.55;7.43;;;-0.50;99.90;;;;;;6219183;23;20024;-84
2021/12/06 05:25:04;;;;;;;7.50;5.88;;;-0.40;99.90;;;;;;6198297;23;20016;-84
2021/12/06 05:27:32;;;;;;;9.32;5.85;;;-0.40;99.90;;;;;;6216433;23;20024;-84
2021/12/06 05:30:04;;;;;;;13.10;6.65;;;-0.30;99.90;;;;;;6221465;23;20024;-84
2021/12/06 05:32:35;;;;;;;15.77;7.65;;;-0.30;99.90;;;;;;6187730;23;20024;-84
2021/12/06 05:35:08;;;;;;;10.05;6.25;;;-0.30;99.90;;;;;;6217140;23;20024;-84
2021/12/06 05:37:45;;;;;;;10.00;7.05;;;-0.40;99.90;;;;;;6224530;23;20020;-83
2021/12/06 05:40:22;;;;;;;12.20;8.32;;;-0.40;99.90;;;;;;6212650;22;20028;-84
2021/12/06 05:42:51;;;;;;;15.18;6.00;;;-0.40;99.90;;;;;;6217839;23;20013;-84
2021/12/06 05:45:21;;;;;;;11.05;5.97;;;-0.30;99.90;;;;;;6212815;23;20016;-82
2021/12/06 05:47:50;;;;;;;12.93;6.13;;;-0.40;99.90;;;;;;6215079;23;20029;-82
2021/12/06 05:50:18;;;;;;;11.77;7.90;;;-0.40;99.90;;;;;;6162151;23;20032;-82
2021/12/06 05:52:46;;;;;;;8.95;6.38;;;-0.30;99.90;;;;;;6223197;23;20027;-80
2021/12/06 05:55:14;;;;;;;16.70;9.52;;;-0.40;99.90;;;;;;6217384;23;20043;-83
2021/12/06 05:57:42;;;;;;;9.60;7.30;;;-0.30;99.90;;;;;;6224518;23;20020;-83
2021/12/06 06:00:13;;;;;;;11.52;6.20;;;-0.30;99.90;;;;;;6213549;23;20024;-82
2021/12/06 06:02:41;;;;;;;14.88;8.02;;;-0.30;99.90;;;;;;6219932;23;20020;-82
2021/12/06 06:05:10;;;;;;;10.70;4.60;;;-0.40;99.90;;;;;;6224460;23;20055;-82
2021/12/06 06:07:55;;;;;;;11.95;6.53;;;-0.50;99.90;;;;;;6215960;23;20020;-83
2021/12/06 06:11:03;;;;;;;10.18;6.13;;;-0.50;99.90;;;;;;6217979;23;20386;-83
2021/12/06 06:14:04;;;;;;;17.45;7.65;;;-0.40;99.90;;;;;;6191878;23;20027;-83
2021/12/06 06:16:36;;;;;;;16.25;7.93;;;-0.50;99.90;;;;;;6224208;23;20336;-83
2021/12/06 06:19:05;;;;;;;10.27;7.97;;;-0.50;99.90;;;;;;6186406;23;20013;-80
2021/12/06 06:21:36;;;;;;;11.30;7.07;;;-0.50;99.90;;;;;;6222191;23;20013;-85
2021/12/06 06:24:04;;;;;;;12.50;9.93;;;-0.50;99.90;;;;;;6214304;23;20027;-82
2021/12/06 06:26:31;;;;;;;6.07;5.40;;;-0.60;99.90;;;;;;6185808;23;20012;-79
2021/12/06 06:28:59;;;;;;;9.23;6.45;;;-0.60;99.90;;;;;;6222555;23;20012;-83
2021/12/06 06:31:27;;;;;;;12.43;5.95;;;-0.50;99.90;;;;;;6215268;23;20035;-85
2021/12/06 06:33:57;;;;;;;10.57;5.85;;;-0.50;99.90;;;;;;6221311;23;20009;-84
2021/12/06 06:36:25;;;;;;;8.60;7.55;;;-0.50;99.90;;;;;;6212041;23;20021;-86
2021/12/06 06:38:53;;;;;;;6.78;5.07;;;-0.50;99.90;;;;;;6217123;23;20025;-86
2021/12/06 06:41:21;;;;;;;10.68;5.55;;;-0.50;99.90;;;;;;6182354;23;20431;-86
2021/12/06 06:43:49;;;;;;;9.45;5.15;;;-0.50;99.90;;;;;;6209222;23;20344;-86
2021/12/06 06:46:18;;;;;;;8.98;5.55;;;-0.40;99.90;;;;;;6218018;23;20027;-86
2021/12/06 06:48:47;;;;;;;6.65;5.88;;;-0.60;99.90;;;;;;6185325;23;20462;-85
2021/12/06 06:51:15;;;;;;;10.25;6.53;;;-0.60;99.90;;;;;;6214250;23;20357;-86
2021/12/06 06:53:43;;;;;;;10.30;6.03;;;-0.60;99.90;;;;;;6185169;23;20016;-86
2021/12/06 06:56:11;;;;;;;13.77;9.40;;;-0.50;99.90;;;;;;6182000;23;20032;-85
2021/12/06 06:58:39;;;;;;;14.50;7.35;;;-0.50;99.90;;;;;;6215532;23;20460;-86
2021/12/06 07:01:07;;;;;;;9.40;6.10;;;-0.50;99.90;;;;;;6219781;23;20436;-85
2021/12/06 07:03:34;;;;;;;11.10;5.18;;;-0.50;99.90;;;;;;6212173;23;20024;-86
2021/12/06 07:06:04;;;;;;;9.07;6.20;;;-0.50;99.90;;;;;;6217762;23;20016;-85
2021/12/06 07:08:32;;;;;;;8.73;7.95;;;-0.50;99.90;;;;;;6185387;23;20024;-85
2021/12/06 07:11:00;;;;;;;16.13;7.18;;;-0.50;99.90;;;;;;6212311;23;20468;-85
2021/12/06 07:13:28;;;;;;;8.50;6.13;;;-0.50;99.90;;;;;;6221684;23;20028;-85
2021/12/06 07:15:59;;;;;;;10.02;7.75;;;-0.40;99.90;;;;;;6205472;23;20044;-84
2021/12/06 07:18:27;;;;;;;20.15;8.57;;;-0.50;99.90;;;;;;6166015;23;20391;-86
2021/12/06 07:20:55;;;;;;;15.85;8.48;;;-0.40;99.90;;;;;;6219172;23;20013;-87
2021/12/06 07:23:23;;;;;;;17.15;11.38;;;-0.50;99.90;;;;;;6160244;23;20019;-87
2021/12/06 07:25:51;;;;;;;17.13;9.40;;;-0.40;99.90;;;;;;6181011;23;20036;-87
2021/12/06 07:28:18;;;;;;;23.45;11.45;;;-0.40;99.90;;;;;;6221489;23;20023;-87
2021/12/06 07:30:46;;;;;;;23.30;11.10;;;-0.50;99.90;;;;;;6207811;23;20453;-87
2021/12/06 07:33:14;;;;;;;64.38;14.18;;;-0.40;99.90;;;;;;6220218;23;20028;-88
2021/12/06 07:35:42;;;;;;;23.88;11.48;;;-0.40;99.90;;;;;;6183404;23;20020;-88
2021/12/06 07:38:10;;;;;;;27.13;13.48;;;-0.40;99.90;;;;;;6183861;23;20020;-87
2021/12/06 07:40:38;;;;;;;35.70;13.98;;;-0.30;99.90;;;;;;6206751;23;20013;-87
2021/12/06 07:43:05;;;;;;;45.47;12.32;;;-0.30;99.90;;;;;;6213830;23;20506;-88
2021/12/06 07:45:33;;;;;;;34.42;13.38;;;-0.40;99.90;;;;;;6219501;23;20009;-86
2021/12/06 07:48:01;;;;;;;18.92;12.13;;;-0.30;99.90;;;;;;6209732;23;20499;-88
2021/12/06 07:50:32;;;;;;;38.63;15.07;;;-0.30;99.90;;;;;;6216196;23;20016;-86
2021/12/06 07:53:00;;;;;;;42.80;13.33;;;-0.30;99.90;;;;;;6209559;23;20027;-87
2021/12/06 07:55:31;;;;;;;27.08;14.68;;;-0.30;99.90;;;;;;6210920;23;20028;-87
2021/12/06 07:57:59;;;;;;;42.67;12.18;;;-0.10;99.90;;;;;;6217292;23;20020;-87
2021/12/06 08:00:29;;;;;;;84.00;20.38;;;-0.20;99.90;;;;;;6220440;23;20324;-88
2021/12/06 08:02:57;;;;;;;48.17;14.45;;;-0.20;99.90;;;;;;6215298;23;20355;-87
2021/12/06 08:05:35;;;;;;;47.00;15.25;;;-0.20;99.90;;;;;;6218556;23;20023;-87
2021/12/06 08:08:09;;;;;;;49.75;12.15;;;-0.10;99.90;;;;;;6209506;23;20021;-87
2021/12/06 08:10:39;;;;;;;40.28;14.90;;;-0.10;99.90;;;;;;6213996;23;20027;-87
2021/12/06 08:13:07;;;;;;;61.10;19.15;;;-0.10;99.90;;;;;;6221006;23;20019;-88
2021/12/06 08:15:35;;;;;;;48.97;15.50;;;-0.10;99.90;;;;;;6210919;23;20021;-88
2021/12/06 08:18:05;;;;;;;35.75;14.75;;;-0.10;99.90;;;;;;6183691;23;20021;-88
2021/12/06 08:20:34;;;;;;;52.05;16.60;;;-0.10;99.90;;;;;;6182862;23;20016;-88
2021/12/06 08:23:02;;;;;;;41.83;17.27;;;0.00;99.90;;;;;;6215166;23;20013;-87
2021/12/06 08:25:30;;;;;;;93.13;19.33;;;-0.10;99.90;;;;;;6217314;23;20024;-88
2021/12/06 08:27:58;;;;;;;54.75;17.65;;;-0.10;99.90;;;;;;6184797;23;20040;-88
2021/12/06 08:30:26;;;;;;;52.38;14.13;;;0.00;99.90;;;;;;6216828;23;20486;-89
2021/12/06 08:32:57;;;;;;;28.60;13.57;;;0.00;99.90;;;;;;6220472;23;20019;-86
2021/12/06 08:35:36;;;;;;;32.13;12.13;;;0.00;99.90;;;;;;6208269;23;20457;-88
2021/12/06 08:38:06;;;;;;;36.38;12.80;;;0.00;99.90;;;;;;6217437;23;20012;-88
2021/12/06 08:40:35;;;;;;;25.45;11.82;;;0.10;99.90;;;;;;6156497;23;20413;-88
2021/12/06 08:43:04;;;;;;;26.02;12.45;;;0.10;99.90;;;;;;6183913;23;20426;-88
2021/12/06 08:45:33;;;;;;;24.02;14.10;;;0.10;99.90;;;;;;6183792;23;20020;-88
2021/12/06 08:48:01;;;;;;;45.55;16.60;;;0.10;99.90;;;;;;6183426;23;20039;-88
2021/12/06 08:50:30;;;;;;;31.92;16.20;;;0.10;99.90;;;;;;6181526;23;20027;-87
2021/12/06 08:52:58;;;;;;;32.58;15.55;;;0.10;99.90;;;;;;6208647;23;20025;-87
2021/12/06 08:55:27;;;;;;;37.50;13.48;;;0.20;99.90;;;;;;6184616;23;20024;-87
2021/12/06 08:57:55;;;;;;;35.60;17.30;;;0.20;99.90;;;;;;6157712;23;20020;-88
2021/12/06 09:00:34;;;;;;;22.65;11.55;;;0.20;99.90;;;;;;6208052;23;20020;-87
2021/12/06 09:03:04;;;;;;;25.10;13.05;;;0.20;99.90;;;;;;6183827;23;20021;-87
2021/12/06 09:05:41;;;;;;;26.02;13.48;;;0.30;99.90;;;;;;6182716;23;20016;-87
2021/12/06 09:08:16;;;;;;;24.33;13.60;;;0.30;99.90;;;;;;6207321;23;20027;-87
2021/12/06 09:10:49;;;;;;;34.20;15.27;;;0.30;99.90;;;;;;6213373;23;20028;-88
2021/12/06 09:13:23;;;;;;;28.27;14.35;;;0.30;99.90;;;;;;6159286;23;20352;-86
2021/12/06 09:15:52;;;;;;;37.03;18.70;;;0.40;99.90;;;;;;6209161;23;20021;-88
2021/12/06 09:18:21;;;;;;;20.30;12.55;;;0.40;99.90;;;;;;6182897;23;20020;-87
2021/12/06 09:20:52;;;;;;;22.60;10.45;;;0.40;99.90;;;;;;6218179;23;20012;-88
2021/12/06 09:23:23;;;;;;;27.63;13.50;;;0.50;99.90;;;;;;6183416;23;20329;-88
2021/12/06 09:25:51;;;;;;;23.77;12.95;;;0.50;99.90;;;;;;6205721;23;20375;-87
2021/12/06 09:28:19;;;;;;;29.85;16.60;;;0.50;99.90;;;;;;6209113;23;20023;-88
2021/12/06 09:30:47;;;;;;;31.90;15.10;;;0.60;99.90;;;;;;6182603;23;20477;-89
2021/12/06 09:33:16;;;;;;;27.45;15.23;;;0.50;99.90;;;;;;6184233;23;20024;-88
2021/12/06 09:35:46;;;;;;;27.83;16.17;;;0.60;99.90;;;;;;6207676;23;20474;-88
2021/12/06 09:38:18;;;;;;;25.45;15.32;;;0.60;99.90;;;;;;6218276;23;20016;-90
2021/12/06 09:40:49;;;;;;;28.95;14.75;;;0.60;99.90;;;;;;6215649;23;20013;-88
2021/12/06 09:43:18;;;;;;;25.23;12.82;;;0.60;99.90;;;;;;6212167;23;20039;-87
2021/12/06 09:45:47;;;;;;;25.25;13.95;;;0.60;99.90;;;;;;6195758;23;20020;-87
2021/12/06 09:48:16;;;;;;;22.35;13.90;;;0.60;99.90;;;;;;6201316;23;20021;-88
2021/12/06 09:50:57;;;;;;;21.17;14.15;;;0.60;99.90;;;;;;6183833;23;20451;-88
2021/12/06 09:53:33;;;;;;;26.08;15.48;;;0.70;99.90;;;;;;6186839;23;20023;-88
2021/12/06 09:56:07;;;;;;;20.27;11.30;;;0.60;99.90;;;;;;6209375;23;20025;-84
2021/12/06 09:58:36;;;;;;;22.40;15.23;;;0.60;99.90;;;;;;6210727;23;20028;-84
2021/12/06 10:01:19;;;;;;;31.40;19.40;;;0.60;99.90;;;;;;6222810;23;20459;-84
2021/12/06 10:03:49;;;;;;;22.88;12.82;;;0.60;99.90;;;;;;6189039;23;20029;-84
2021/12/06 10:06:18;;;;;;;27.85;18.55;;;0.60;99.90;;;;;;6218583;23;20020;-82
2021/12/06 10:08:49;;;;;;;27.13;15.70;;;0.80;99.90;;;;;;6222758;23;20024;-84
2021/12/06 10:11:23;;;;;;;28.58;17.27;;;0.70;99.90;;;;;;6161421;23;20629;-83
2021/12/06 10:13:55;;;;;;;36.70;19.88;;;0.60;99.90;;;;;;6223314;23;20455;-83
2021/12/06 10:16:23;;;;;;;32.10;15.90;;;0.70;99.90;;;;;;6223553;23;20028;-82
2021/12/06 10:18:53;;;;;;;28.38;13.38;;;0.80;99.90;;;;;;6219071;23;20028;-84
2021/12/06 10:21:24;;;;;;;24.35;16.20;;;0.80;99.90;;;;;;6211288;23;20020;-83
2021/12/06 10:23:51;;;;;;;48.40;20.48;;;0.90;99.90;;;;;;6215503;23;20031;-84
2021/12/06 10:26:23;;;;;;;25.65;15.00;;;0.90;99.90;;;;;;6221489;23;20024;-87
2021/12/06 10:29:05;;;;;;;24.52;14.05;;;0.90;99.90;;;;;;6188033;23;20013;-88
2021/12/06 10:31:34;;;;;;;27.75;17.42;;;0.80;99.90;;;;;;6187478;23;20494;-87
2021/12/06 10:34:01;;;;;;;22.88;13.18;;;0.80;99.90;;;;;;6223259;23;20023;-87
2021/12/06 10:36:29;;;;;;;20.70;11.85;;;0.90;99.90;;;;;;6213929;23;20466;-87
2021/12/06 10:39:05;;;;;;;18.45;12.07;;;0.80;99.90;;;;;;6217263;23;20336;-85
2021/12/06 10:41:35;;;;;;;21.70;10.90;;;1.00;99.90;;;;;;6220180;23;20027;-84
2021/12/06 10:44:09;;;;;;;10.18;7.22;;;1.00;99.90;;;;;;6213690;23;20025;-83
2021/12/06 10:46:41;;;;;;;23.13;14.75;;;1.20;99.90;;;;;;6220252;23;20027;-84
2021/12/06 10:49:14;;;;;;;20.75;13.00;;;1.20;99.90;;;;;;6224114;23;20016;-82
2021/12/06 10:51:43;;;;;;;23.83;12.88;;;1.20;99.90;;;;;;6212174;23;20035;-84
2021/12/06 10:54:20;;;;;;;23.00;13.43;;;1.10;99.90;;;;;;6184848;23;20028;-87
2021/12/06 10:56:52;;;;;;;21.17;14.18;;;1.10;99.90;;;;;;6182060;23;20043;-86
2021/12/06 10:59:26;;;;;;;23.10;12.18;;;1.20;99.90;;;;;;6215329;23;20023;-84
2021/12/06 11:02:13;;;;;;;23.42;14.98;;;1.20;99.90;;;;;;6186366;23;20021;-85
2021/12/06 11:04:42;;;;;;;20.17;12.95;;;1.20;99.90;;;;;;6222154;23;20032;-85
2021/12/06 11:32:55;;;;;;;;;;;;;;;;;;;;;
2021/12/06 11:47:19;;;;;;;16.15;12.32;;;1.20;99.90;;;;;;5962677;23;20019;-89
2021/12/06 11:50:14;;;;;;;20.58;12.30;;;1.20;99.90;;;;;;5977416;23;20027;-90
2021/12/06 11:52:51;;;;;;;29.33;13.02;;;1.20;99.90;;;;;;6102309;23;20442;-88
2021/12/06 11:55:31;;;;;;;19.65;14.00;;;1.10;99.90;;;;;;6061854;23;20027;-87
2021/12/06 11:58:23;;;;;;;18.67;13.33;;;1.20;99.90;;;;;;6097350;23;20450;-90
2021/12/06 12:01:59;;;;;;;22.65;13.40;;;1.10;99.90;;;;;;6136199;23;20040;-81
2021/12/06 12:04:29;;;;;;;22.23;12.40;;;1.20;99.90;;;;;;6130882;23;20021;-80
2021/12/06 12:07:03;;;;;;;21.98;15.20;;;1.20;99.90;;;;;;6186508;23;20013;-80
2021/12/06 12:09:36;;;;;;;17.90;12.63;;;1.10;99.90;;;;;;6156718;23;20013;-80
2021/12/06 12:12:22;;;;;;;14.95;10.25;;;1.10;99.90;;;;;;6181637;23;20021;-79
2021/12/06 12:14:58;;;;;;;25.48;13.88;;;1.20;99.90;;;;;;6161333;23;20024;-81
2021/12/06 12:17:29;;;;;;;17.88;11.90;;;1.40;99.90;;;;;;6166058;23;20017;-81
2021/12/06 12:20:06;;;;;;;15.57;9.73;;;1.30;99.90;;;;;;6182026;23;20048;-81
2021/12/06 12:22:39;;;;;;;18.50;12.10;;;1.20;99.90;;;;;;6187118;23;20017;-84
2021/12/06 12:25:15;;;;;;;20.77;12.57;;;1.20;99.90;;;;;;6131105;23;20023;-89
2021/12/06 12:27:54;;;;;;;25.25;13.25;;;1.30;99.90;;;;;;6158303;23;20032;-88
2021/12/06 12:30:24;;;;;;;21.10;11.50;;;1.30;99.90;;;;;;6164925;23;20457;-86
2021/12/06 12:32:51;;;;;;;14.55;9.70;;;1.40;99.90;;;;;;6165736;23;20017;-90
2021/12/06 12:35:20;;;;;;;18.48;10.75;;;1.40;99.90;;;;;;6131703;23;20029;-85
2021/12/06 12:37:51;;;;;;;24.50;13.57;;;1.40;99.90;;;;;;6173210;23;20025;-88
2021/12/06 12:40:22;;;;;;;16.50;9.60;;;1.50;99.90;;;;;;6159411;23;20032;-84
2021/12/06 12:42:57;;;;;;;23.47;12.57;;;1.50;99.90;;;;;;6216476;23;20052;-87
2021/12/06 12:45:55;;;;;;;20.77;10.75;;;1.50;99.90;;;;;;6163136;23;20260;-90
2021/12/06 12:48:26;;;;;;;17.35;10.07;;;1.60;99.90;;;;;;6145706;23;20136;-89
2021/12/06 12:51:15;;;;;;;15.55;11.95;;;1.60;99.90;;;;;;6161800;23;20028;-89
2021/12/06 12:54:11;;;;;;;18.60;12.07;;;1.60;99.90;;;;;;6162717;23;20020;-90
2021/12/06 12:56:48;;;;;;;17.73;10.85;;;1.60;99.90;;;;;;6114468;23;20032;-87
2021/12/06 12:59:19;;;;;;;20.13;15.48;;;1.50;99.90;;;;;;6216049;23;20025;-88
2021/12/06 13:02:12;;;;;;;16.38;9.30;;;1.50;99.90;;;;;;6161256;23;20028;-86
2021/12/06 13:05:00;;;;;;;20.90;11.43;;;1.50;99.90;;;;;;6184210;23;20024;-85
2021/12/06 13:07:39;;;;;;;15.88;10.90;;;1.40;99.90;;;;;;6198019;23;20028;-90
2021/12/06 13:10:31;;;;;;;16.67;9.68;;;1.50;99.90;;;;;;6217176;23;20016;-88
2021/12/06 13:13:22;;;;;;;16.75;11.95;;;1.50;99.90;;;;;;6222864;23;20024;-86
2021/12/06 13:18:34;;;;;;;20.70;10.02;;;1.50;99.90;;;;;;6211036;23;20460;-86
2021/12/06 13:21:29;;;;;;;20.42;11.82;;;1.50;99.90;;;;;;6223044;23;20042;-87
2021/12/06 13:24:09;;;;;;;19.45;11.40;;;1.50;99.90;;;;;;6213536;23;20025;-87
2021/12/06 13:26:48;;;;;;;21.75;13.07;;;1.50;99.90;;;;;;6187384;23;20028;-87
2021/12/06 13:29:25;;;;;;;21.70;12.95;;;1.40;99.90;;;;;;6212432;23;20012;-87
2021/12/06 13:31:55;;;;;;;21.90;13.27;;;1.40;99.90;;;;;;6213668;23;20484;-86
2021/12/06 13:34:32;;;;;;;24.00;14.05;;;1.40;99.90;;;;;;6159599;23;20021;-85
2021/12/06 13:37:03;;;;;;;16.15;12.77;;;1.40;99.90;;;;;;6162234;23;20028;-87
2021/12/06 13:39:41;;;;;;;15.38;12.98;;;1.40;99.90;;;;;;6212978;23;20059;-86
2021/12/06 13:42:14;;;;;;;16.58;12.65;;;1.40;99.90;;;;;;6185784;23;20033;-88
2021/12/06 13:44:50;;;;;;;16.83;12.63;;;1.40;99.90;;;;;;6212029;23;20028;-87
2021/12/06 13:47:22;;;;;;;23.17;12.43;;;1.30;99.90;;;;;;6187035;23;20028;-87
2021/12/06 13:50:10;;;;;;;19.80;9.75;;;1.30;99.90;;;;;;6162262;23;20017;-88
2021/12/06 13:52:52;;;;;;;18.60;10.75;;;1.30;99.90;;;;;;6187466;23;20023;-87
2021/12/06 13:56:18;;;;;;;22.15;12.80;;;1.30;99.90;;;;;;6190065;23;20021;-84